sensor_id;sensor_type;location;lat;lon;timestamp;P1;durP1;ratioP1;P2;durP2;ratioP2
46563;SDS011;32291;52.010;4.446;2023-07-13T00:00:34;15.38;;;3.83;;
46563;SDS011;32291;52.010;4.446;2023-07-13T00:01:42;10.07;;;3.22;;
46563;SDS011;32291;52.010;4.446;2023-07-13T00:02:49;11.80;;;3.28;;
46563;SDS011;32291;52.010;4.446;2023-07-13T00:03:55;14.00;;;3.83;;
46563;SDS011;32291;52.010;4.446;2023-07-13T00:05:04;12.02;;;3.20;;
46563;SDS011;32291;52.010;4.446;2023-07-13T00:06:12;10.50;;;3.42;;
46563;SDS011;32291;52.010;4.446;2023-07-13T00:07:20;11.40;;;3.28;;
46563;SDS011;32291;52.010;4.446;2023-07-13T00:08:22;13.80;;;3.53;;
46563;SDS011;32291;52.010;4.446;2023-07-13T00:09:25;14.13;;;3.90;;
46563;SDS011;32291;52.010;4.446;2023-07-13T00:10:32;15.15;;;3.65;;
46563;SDS011;32291;52.010;4.446;2023-07-13T00:11:34;13.75;;;4.20;;
46563;SDS011;32291;52.010;4.446;2023-07-13T00:12:41;8.52;;;2.83;;
46563;SDS011;32291;52.010;4.446;2023-07-13T00:13:44;12.25;;;3.50;;
46563;SDS011;32291;52.010;4.446;2023-07-13T00:14:51;12.02;;;3.40;;
46563;SDS011;32291;52.010;4.446;2023-07-13T00:15:54;17.10;;;4.43;;
46563;SDS011;32291;52.010;4.446;2023-07-13T00:17:02;10.60;;;3.13;;
46563;SDS011;32291;52.010;4.446;2023-07-13T00:18:10;16.23;;;3.20;;
46563;SDS011;32291;52.010;4.446;2023-07-13T00:19:12;14.82;;;3.45;;
46563;SDS011;32291;52.010;4.446;2023-07-13T00:20:21;13.80;;;3.67;;
46563;SDS011;32291;52.010;4.446;2023-07-13T00:21:31;16.40;;;3.33;;
46563;SDS011;32291;52.010;4.446;2023-07-13T00:22:33;11.60;;;3.58;;
46563;SDS011;32291;52.010;4.446;2023-07-13T00:23:41;10.10;;;3.70;;
46563;SDS011;32291;52.010;4.446;2023-07-13T00:24:49;9.65;;;3.63;;
46563;SDS011;32291;52.010;4.446;2023-07-13T00:25:58;8.00;;;2.63;;
46563;SDS011;32291;52.010;4.446;2023-07-13T00:27:05;10.73;;;3.10;;
46563;SDS011;32291;52.010;4.446;2023-07-13T00:28:07;17.88;;;3.53;;
46563;SDS011;32291;52.010;4.446;2023-07-13T00:29:09;12.32;;;3.65;;
46563;SDS011;32291;52.010;4.446;2023-07-13T00:30:12;13.70;;;3.42;;
46563;SDS011;32291;52.010;4.446;2023-07-13T00:31:19;13.55;;;3.17;;
46563;SDS011;32291;52.010;4.446;2023-07-13T00:32:29;12.95;;;4.25;;
46563;SDS011;32291;52.010;4.446;2023-07-13T00:33:32;10.85;;;3.15;;
46563;SDS011;32291;52.010;4.446;2023-07-13T00:34:39;16.80;;;3.38;;
46563;SDS011;32291;52.010;4.446;2023-07-13T00:35:42;9.55;;;2.97;;
46563;SDS011;32291;52.010;4.446;2023-07-13T00:36:45;13.38;;;3.70;;
46563;SDS011;32291;52.010;4.446;2023-07-13T00:37:52;11.95;;;2.70;;
46563;SDS011;32291;52.010;4.446;2023-07-13T00:38:59;16.05;;;3.40;;
46563;SDS011;32291;52.010;4.446;2023-07-13T00:40:06;15.70;;;3.58;;
46563;SDS011;32291;52.010;4.446;2023-07-13T00:41:12;12.95;;;3.40;;
46563;SDS011;32291;52.010;4.446;2023-07-13T00:42:19;8.85;;;3.22;;
46563;SDS011;32291;52.010;4.446;2023-07-13T00:43:27;9.63;;;3.53;;
46563;SDS011;32291;52.010;4.446;2023-07-13T00:44:35;13.70;;;3.63;;
46563;SDS011;32291;52.010;4.446;2023-07-13T00:46:50;11.98;;;3.80;;
46563;SDS011;32291;52.010;4.446;2023-07-13T00:47:54;11.20;;;2.67;;
46563;SDS011;32291;52.010;4.446;2023-07-13T00:49:05;10.07;;;3.00;;
46563;SDS011;32291;52.010;4.446;2023-07-13T00:50:20;11.98;;;2.53;;
46563;SDS011;32291;52.010;4.446;2023-07-13T00:52:12;13.13;;;3.35;;
46563;SDS011;32291;52.010;4.446;2023-07-13T00:53:02;14.27;;;3.05;;
46563;SDS011;32291;52.010;4.446;2023-07-13T00:54:11;11.13;;;3.58;;
46563;SDS011;32291;52.010;4.446;2023-07-13T00:55:19;10.98;;;3.88;;
46563;SDS011;32291;52.010;4.446;2023-07-13T00:56:24;20.25;;;3.78;;
46563;SDS011;32291;52.010;4.446;2023-07-13T00:57:32;16.38;;;3.40;;
46563;SDS011;32291;52.010;4.446;2023-07-13T00:58:42;10.98;;;2.97;;
46563;SDS011;32291;52.010;4.446;2023-07-13T00:59:46;11.35;;;3.58;;
46563;SDS011;32291;52.010;4.446;2023-07-13T01:01:01;8.38;;;2.40;;
46563;SDS011;32291;52.010;4.446;2023-07-13T01:02:03;14.77;;;3.40;;
46563;SDS011;32291;52.010;4.446;2023-07-13T01:03:10;10.57;;;3.15;;
46563;SDS011;32291;52.010;4.446;2023-07-13T01:04:13;10.68;;;2.70;;
46563;SDS011;32291;52.010;4.446;2023-07-13T01:05:21;7.18;;;2.97;;
46563;SDS011;32291;52.010;4.446;2023-07-13T01:06:30;9.10;;;2.47;;
46563;SDS011;32291;52.010;4.446;2023-07-13T01:07:39;9.52;;;3.10;;
46563;SDS011;32291;52.010;4.446;2023-07-13T01:08:49;11.20;;;3.38;;
46563;SDS011;32291;52.010;4.446;2023-07-13T01:09:52;17.15;;;3.83;;
46563;SDS011;32291;52.010;4.446;2023-07-13T01:10:59;9.55;;;3.00;;
46563;SDS011;32291;52.010;4.446;2023-07-13T01:12:06;10.38;;;2.70;;
46563;SDS011;32291;52.010;4.446;2023-07-13T01:13:13;17.25;;;3.45;;
46563;SDS011;32291;52.010;4.446;2023-07-13T01:14:16;9.20;;;2.80;;
46563;SDS011;32291;52.010;4.446;2023-07-13T01:16:51;10.57;;;2.40;;
46563;SDS011;32291;52.010;4.446;2023-07-13T01:17:55;9.68;;;2.47;;
46563;SDS011;32291;52.010;4.446;2023-07-13T01:19:03;9.05;;;2.33;;
46563;SDS011;32291;52.010;4.446;2023-07-13T01:20:23;7.45;;;2.33;;
46563;SDS011;32291;52.010;4.446;2023-07-13T01:21:32;10.20;;;2.60;;
46563;SDS011;32291;52.010;4.446;2023-07-13T01:22:40;7.05;;;2.47;;
46563;SDS011;32291;52.010;4.446;2023-07-13T01:23:43;9.75;;;2.50;;
46563;SDS011;32291;52.010;4.446;2023-07-13T01:24:50;9.48;;;1.88;;
46563;SDS011;32291;52.010;4.446;2023-07-13T01:25:58;9.50;;;2.47;;
46563;SDS011;32291;52.010;4.446;2023-07-13T01:27:01;8.00;;;2.42;;
46563;SDS011;32291;52.010;4.446;2023-07-13T01:28:05;8.85;;;2.30;;
46563;SDS011;32291;52.010;4.446;2023-07-13T01:29:12;5.55;;;2.08;;
46563;SDS011;32291;52.010;4.446;2023-07-13T01:30:19;7.13;;;2.85;;
46563;SDS011;32291;52.010;4.446;2023-07-13T01:31:22;7.93;;;2.47;;
46563;SDS011;32291;52.010;4.446;2023-07-13T01:32:28;8.00;;;2.75;;
46563;SDS011;32291;52.010;4.446;2023-07-13T01:33:38;9.05;;;2.40;;
46563;SDS011;32291;52.010;4.446;2023-07-13T01:34:41;9.57;;;2.30;;
46563;SDS011;32291;52.010;4.446;2023-07-13T01:35:45;9.27;;;2.42;;
46563;SDS011;32291;52.010;4.446;2023-07-13T01:36:48;8.50;;;2.35;;
46563;SDS011;32291;52.010;4.446;2023-07-13T01:37:55;13.27;;;2.97;;
46563;SDS011;32291;52.010;4.446;2023-07-13T01:39:06;11.57;;;3.05;;
46563;SDS011;32291;52.010;4.446;2023-07-13T01:40:13;8.55;;;2.85;;
46563;SDS011;32291;52.010;4.446;2023-07-13T01:41:19;10.02;;;3.22;;
46563;SDS011;32291;52.010;4.446;2023-07-13T01:42:22;6.43;;;2.38;;
46563;SDS011;32291;52.010;4.446;2023-07-13T01:43:29;8.52;;;2.40;;
46563;SDS011;32291;52.010;4.446;2023-07-13T01:44:36;7.22;;;2.05;;
46563;SDS011;32291;52.010;4.446;2023-07-13T01:45:43;10.68;;;2.85;;
46563;SDS011;32291;52.010;4.446;2023-07-13T01:46:51;7.90;;;2.53;;
46563;SDS011;32291;52.010;4.446;2023-07-13T01:47:58;10.23;;;2.35;;
46563;SDS011;32291;52.010;4.446;2023-07-13T01:49:05;8.90;;;2.60;;
46563;SDS011;32291;52.010;4.446;2023-07-13T01:50:07;6.40;;;2.50;;
46563;SDS011;32291;52.010;4.446;2023-07-13T01:51:15;9.45;;;2.13;;
46563;SDS011;32291;52.010;4.446;2023-07-13T01:52:23;6.03;;;2.33;;
46563;SDS011;32291;52.010;4.446;2023-07-13T01:53:30;8.07;;;2.03;;
46563;SDS011;32291;52.010;4.446;2023-07-13T01:54:33;6.78;;;2.20;;
46563;SDS011;32291;52.010;4.446;2023-07-13T01:55:41;6.90;;;2.15;;
46563;SDS011;32291;52.010;4.446;2023-07-13T01:56:48;7.00;;;1.75;;
46563;SDS011;32291;52.010;4.446;2023-07-13T01:57:51;4.60;;;1.73;;
46563;SDS011;32291;52.010;4.446;2023-07-13T01:58:58;7.43;;;2.00;;
46563;SDS011;32291;52.010;4.446;2023-07-13T02:00:05;5.95;;;1.80;;
46563;SDS011;32291;52.010;4.446;2023-07-13T02:01:10;7.53;;;1.83;;
46563;SDS011;32291;52.010;4.446;2023-07-13T02:02:13;7.10;;;2.05;;
46563;SDS011;32291;52.010;4.446;2023-07-13T02:03:15;6.28;;;1.80;;
46563;SDS011;32291;52.010;4.446;2023-07-13T02:04:24;4.78;;;1.63;;
46563;SDS011;32291;52.010;4.446;2023-07-13T02:05:31;5.50;;;2.03;;
46563;SDS011;32291;52.010;4.446;2023-07-13T02:06:33;5.10;;;2.15;;
46563;SDS011;32291;52.010;4.446;2023-07-13T02:07:35;4.30;;;1.40;;
46563;SDS011;32291;52.010;4.446;2023-07-13T02:08:42;3.25;;;1.20;;
46563;SDS011;32291;52.010;4.446;2023-07-13T02:09:49;3.17;;;1.30;;
46563;SDS011;32291;52.010;4.446;2023-07-13T02:10:56;6.07;;;1.35;;
46563;SDS011;32291;52.010;4.446;2023-07-13T02:11:58;4.80;;;1.40;;
46563;SDS011;32291;52.010;4.446;2023-07-13T02:13:06;3.75;;;1.20;;
46563;SDS011;32291;52.010;4.446;2023-07-13T02:14:09;4.15;;;1.20;;
46563;SDS011;32291;52.010;4.446;2023-07-13T02:15:11;4.60;;;1.33;;
46563;SDS011;32291;52.010;4.446;2023-07-13T02:16:13;4.90;;;1.73;;
46563;SDS011;32291;52.010;4.446;2023-07-13T02:17:21;3.35;;;1.30;;
46563;SDS011;32291;52.010;4.446;2023-07-13T02:18:28;3.38;;;1.50;;
46563;SDS011;32291;52.010;4.446;2023-07-13T02:19:35;3.45;;;1.17;;
46563;SDS011;32291;52.010;4.446;2023-07-13T02:20:43;5.32;;;1.65;;
46563;SDS011;32291;52.010;4.446;2023-07-13T02:21:50;4.32;;;1.35;;
46563;SDS011;32291;52.010;4.446;2023-07-13T02:22:52;5.03;;;1.58;;
46563;SDS011;32291;52.010;4.446;2023-07-13T02:23:59;4.53;;;1.48;;
46563;SDS011;32291;52.010;4.446;2023-07-13T02:25:02;6.35;;;1.70;;
46563;SDS011;32291;52.010;4.446;2023-07-13T02:26:05;5.10;;;1.63;;
46563;SDS011;32291;52.010;4.446;2023-07-13T02:27:12;5.85;;;1.75;;
46563;SDS011;32291;52.010;4.446;2023-07-13T02:28:14;6.47;;;2.25;;
46563;SDS011;32291;52.010;4.446;2023-07-13T02:29:16;5.22;;;1.50;;
46563;SDS011;32291;52.010;4.446;2023-07-13T02:30:23;5.60;;;1.73;;
46563;SDS011;32291;52.010;4.446;2023-07-13T02:31:26;4.05;;;1.58;;
46563;SDS011;32291;52.010;4.446;2023-07-13T02:32:28;3.97;;;1.70;;
46563;SDS011;32291;52.010;4.446;2023-07-13T02:33:30;5.32;;;1.75;;
46563;SDS011;32291;52.010;4.446;2023-07-13T02:34:37;6.65;;;2.00;;
46563;SDS011;32291;52.010;4.446;2023-07-13T02:35:44;6.60;;;2.20;;
46563;SDS011;32291;52.010;4.446;2023-07-13T02:36:47;6.97;;;1.88;;
46563;SDS011;32291;52.010;4.446;2023-07-13T02:37:54;9.32;;;2.40;;
46563;SDS011;32291;52.010;4.446;2023-07-13T02:39:02;6.60;;;2.38;;
46563;SDS011;32291;52.010;4.446;2023-07-13T02:40:07;10.35;;;2.58;;
46563;SDS011;32291;52.010;4.446;2023-07-13T02:41:15;9.65;;;2.08;;
46563;SDS011;32291;52.010;4.446;2023-07-13T02:42:22;8.52;;;2.65;;
46563;SDS011;32291;52.010;4.446;2023-07-13T02:43:30;9.07;;;2.67;;
46563;SDS011;32291;52.010;4.446;2023-07-13T02:44:32;9.20;;;2.78;;
46563;SDS011;32291;52.010;4.446;2023-07-13T02:45:43;11.38;;;2.83;;
46563;SDS011;32291;52.010;4.446;2023-07-13T02:46:46;8.93;;;3.35;;
46563;SDS011;32291;52.010;4.446;2023-07-13T02:47:48;9.20;;;2.42;;
46563;SDS011;32291;52.010;4.446;2023-07-13T02:48:55;13.10;;;3.17;;
46563;SDS011;32291;52.010;4.446;2023-07-13T02:49:58;13.98;;;3.10;;
46563;SDS011;32291;52.010;4.446;2023-07-13T02:51:04;7.97;;;2.85;;
46563;SDS011;32291;52.010;4.446;2023-07-13T02:52:09;11.60;;;2.90;;
46563;SDS011;32291;52.010;4.446;2023-07-13T02:53:15;10.40;;;3.03;;
46563;SDS011;32291;52.010;4.446;2023-07-13T02:54:18;11.07;;;3.13;;
46563;SDS011;32291;52.010;4.446;2023-07-13T02:55:25;8.55;;;2.65;;
46563;SDS011;32291;52.010;4.446;2023-07-13T02:56:28;10.80;;;3.25;;
46563;SDS011;32291;52.010;4.446;2023-07-13T02:57:31;11.00;;;3.17;;
46563;SDS011;32291;52.010;4.446;2023-07-13T02:58:34;11.15;;;3.50;;
46563;SDS011;32291;52.010;4.446;2023-07-13T02:59:42;11.35;;;3.60;;
46563;SDS011;32291;52.010;4.446;2023-07-13T03:00:45;11.35;;;2.90;;
46563;SDS011;32291;52.010;4.446;2023-07-13T03:01:49;10.80;;;3.33;;
46563;SDS011;32291;52.010;4.446;2023-07-13T03:02:51;9.25;;;3.13;;
46563;SDS011;32291;52.010;4.446;2023-07-13T03:03:58;10.50;;;3.35;;
46563;SDS011;32291;52.010;4.446;2023-07-13T03:05:01;13.93;;;3.28;;
46563;SDS011;32291;52.010;4.446;2023-07-13T03:06:04;8.73;;;3.40;;
46563;SDS011;32291;52.010;4.446;2023-07-13T03:07:13;13.98;;;4.07;;
46563;SDS011;32291;52.010;4.446;2023-07-13T03:08:21;12.35;;;3.72;;
46563;SDS011;32291;52.010;4.446;2023-07-13T03:09:24;16.38;;;4.43;;
46563;SDS011;32291;52.010;4.446;2023-07-13T03:10:26;12.63;;;3.90;;
46563;SDS011;32291;52.010;4.446;2023-07-13T03:11:29;9.98;;;3.75;;
46563;SDS011;32291;52.010;4.446;2023-07-13T03:12:32;13.95;;;3.80;;
46563;SDS011;32291;52.010;4.446;2023-07-13T03:13:39;13.55;;;3.85;;
46563;SDS011;32291;52.010;4.446;2023-07-13T03:14:43;15.38;;;4.35;;
46563;SDS011;32291;52.010;4.446;2023-07-13T03:15:50;12.07;;;3.28;;
46563;SDS011;32291;52.010;4.446;2023-07-13T03:16:57;12.35;;;3.47;;
46563;SDS011;32291;52.010;4.446;2023-07-13T03:17:59;10.70;;;3.75;;
46563;SDS011;32291;52.010;4.446;2023-07-13T03:19:06;11.88;;;3.63;;
46563;SDS011;32291;52.010;4.446;2023-07-13T03:20:13;13.63;;;4.18;;
46563;SDS011;32291;52.010;4.446;2023-07-13T03:21:20;13.07;;;3.90;;
46563;SDS011;32291;52.010;4.446;2023-07-13T03:22:23;13.98;;;3.97;;
46563;SDS011;32291;52.010;4.446;2023-07-13T03:23:30;16.38;;;3.85;;
46563;SDS011;32291;52.010;4.446;2023-07-13T03:24:37;13.38;;;4.75;;
46563;SDS011;32291;52.010;4.446;2023-07-13T03:25:44;15.02;;;4.10;;
46563;SDS011;32291;52.010;4.446;2023-07-13T03:26:52;11.65;;;3.15;;
46563;SDS011;32291;52.010;4.446;2023-07-13T03:27:54;13.38;;;4.45;;
46563;SDS011;32291;52.010;4.446;2023-07-13T03:29:01;16.25;;;4.10;;
46563;SDS011;32291;52.010;4.446;2023-07-13T03:30:08;16.73;;;3.92;;
46563;SDS011;32291;52.010;4.446;2023-07-13T03:31:20;12.18;;;3.85;;
46563;SDS011;32291;52.010;4.446;2023-07-13T03:32:33;17.38;;;3.47;;
46563;SDS011;32291;52.010;4.446;2023-07-13T03:33:40;11.02;;;3.50;;
46563;SDS011;32291;52.010;4.446;2023-07-13T03:34:43;13.82;;;4.20;;
46563;SDS011;32291;52.010;4.446;2023-07-13T03:35:50;17.30;;;3.72;;
46563;SDS011;32291;52.010;4.446;2023-07-13T03:36:54;11.90;;;4.03;;
46563;SDS011;32291;52.010;4.446;2023-07-13T03:37:56;16.80;;;4.20;;
46563;SDS011;32291;52.010;4.446;2023-07-13T03:38:59;15.32;;;4.53;;
46563;SDS011;32291;52.010;4.446;2023-07-13T03:40:09;13.00;;;4.00;;
46563;SDS011;32291;52.010;4.446;2023-07-13T03:41:15;16.33;;;4.80;;
46563;SDS011;32291;52.010;4.446;2023-07-13T03:42:23;17.42;;;4.22;;
46563;SDS011;32291;52.010;4.446;2023-07-13T03:43:30;13.88;;;4.55;;
46563;SDS011;32291;52.010;4.446;2023-07-13T03:44:32;14.25;;;3.80;;
46563;SDS011;32291;52.010;4.446;2023-07-13T03:45:39;11.75;;;3.78;;
46563;SDS011;32291;52.010;4.446;2023-07-13T03:46:42;16.58;;;4.78;;
46563;SDS011;32291;52.010;4.446;2023-07-13T03:47:45;12.32;;;3.67;;
46563;SDS011;32291;52.010;4.446;2023-07-13T03:48:53;12.88;;;4.10;;
46563;SDS011;32291;52.010;4.446;2023-07-13T03:50:00;12.95;;;3.75;;
46563;SDS011;32291;52.010;4.446;2023-07-13T03:51:07;13.88;;;3.85;;
46563;SDS011;32291;52.010;4.446;2023-07-13T03:52:14;12.00;;;3.53;;
46563;SDS011;32291;52.010;4.446;2023-07-13T03:53:21;15.98;;;4.20;;
46563;SDS011;32291;52.010;4.446;2023-07-13T03:54:28;13.98;;;4.72;;
46563;SDS011;32291;52.010;4.446;2023-07-13T03:55:31;12.85;;;3.85;;
46563;SDS011;32291;52.010;4.446;2023-07-13T03:56:33;14.75;;;4.05;;
46563;SDS011;32291;52.010;4.446;2023-07-13T03:57:40;16.08;;;4.38;;
46563;SDS011;32291;52.010;4.446;2023-07-13T03:58:43;9.40;;;3.22;;
46563;SDS011;32291;52.010;4.446;2023-07-13T03:59:56;12.55;;;3.75;;
46563;SDS011;32291;52.010;4.446;2023-07-13T04:01:03;16.02;;;4.55;;
46563;SDS011;32291;52.010;4.446;2023-07-13T04:02:13;14.63;;;4.03;;
46563;SDS011;32291;52.010;4.446;2023-07-13T04:03:20;12.27;;;3.30;;
46563;SDS011;32291;52.010;4.446;2023-07-13T04:04:23;9.95;;;3.67;;
46563;SDS011;32291;52.010;4.446;2023-07-13T04:05:25;10.30;;;3.80;;
46563;SDS011;32291;52.010;4.446;2023-07-13T04:06:35;15.27;;;4.13;;
46563;SDS011;32291;52.010;4.446;2023-07-13T04:07:42;14.52;;;3.92;;
46563;SDS011;32291;52.010;4.446;2023-07-13T04:08:51;11.55;;;4.03;;
46563;SDS011;32291;52.010;4.446;2023-07-13T04:10:01;9.90;;;3.17;;
46563;SDS011;32291;52.010;4.446;2023-07-13T04:11:04;13.77;;;3.55;;
46563;SDS011;32291;52.010;4.446;2023-07-13T04:12:11;12.30;;;3.95;;
46563;SDS011;32291;52.010;4.446;2023-07-13T04:13:18;14.07;;;4.00;;
46563;SDS011;32291;52.010;4.446;2023-07-13T04:14:25;12.00;;;4.00;;
46563;SDS011;32291;52.010;4.446;2023-07-13T04:15:29;14.02;;;4.57;;
46563;SDS011;32291;52.010;4.446;2023-07-13T04:16:33;13.55;;;3.80;;
46563;SDS011;32291;52.010;4.446;2023-07-13T04:17:40;11.70;;;3.83;;
46563;SDS011;32291;52.010;4.446;2023-07-13T04:18:48;14.15;;;3.70;;
46563;SDS011;32291;52.010;4.446;2023-07-13T04:19:56;14.90;;;4.03;;
46563;SDS011;32291;52.010;4.446;2023-07-13T04:21:03;14.85;;;4.50;;
46563;SDS011;32291;52.010;4.446;2023-07-13T04:22:05;13.05;;;3.38;;
46563;SDS011;32291;52.010;4.446;2023-07-13T04:23:12;15.98;;;3.90;;
46563;SDS011;32291;52.010;4.446;2023-07-13T04:24:20;15.85;;;4.40;;
46563;SDS011;32291;52.010;4.446;2023-07-13T04:25:22;12.02;;;4.60;;
46563;SDS011;32291;52.010;4.446;2023-07-13T04:26:29;10.00;;;3.30;;
46563;SDS011;32291;52.010;4.446;2023-07-13T04:27:37;14.93;;;3.40;;
46563;SDS011;32291;52.010;4.446;2023-07-13T04:28:40;13.90;;;4.18;;
46563;SDS011;32291;52.010;4.446;2023-07-13T04:29:44;14.45;;;4.25;;
46563;SDS011;32291;52.010;4.446;2023-07-13T04:30:51;13.05;;;4.30;;
46563;SDS011;32291;52.010;4.446;2023-07-13T04:31:59;8.63;;;3.53;;
46563;SDS011;32291;52.010;4.446;2023-07-13T04:33:06;12.50;;;3.40;;
46563;SDS011;32291;52.010;4.446;2023-07-13T04:34:10;10.25;;;3.08;;
46563;SDS011;32291;52.010;4.446;2023-07-13T04:35:17;12.52;;;3.63;;
46563;SDS011;32291;52.010;4.446;2023-07-13T04:36:22;10.55;;;3.65;;
46563;SDS011;32291;52.010;4.446;2023-07-13T04:37:33;10.23;;;3.50;;
46563;SDS011;32291;52.010;4.446;2023-07-13T04:38:41;11.15;;;3.10;;
46563;SDS011;32291;52.010;4.446;2023-07-13T04:39:44;10.45;;;3.15;;
46563;SDS011;32291;52.010;4.446;2023-07-13T04:40:46;9.30;;;3.20;;
46563;SDS011;32291;52.010;4.446;2023-07-13T04:41:54;13.98;;;3.65;;
46563;SDS011;32291;52.010;4.446;2023-07-13T04:43:02;17.15;;;3.88;;
46563;SDS011;32291;52.010;4.446;2023-07-13T04:44:09;10.50;;;3.70;;
46563;SDS011;32291;52.010;4.446;2023-07-13T04:45:16;10.20;;;3.50;;
46563;SDS011;32291;52.010;4.446;2023-07-13T04:46:18;13.48;;;3.42;;
46563;SDS011;32291;52.010;4.446;2023-07-13T04:47:26;13.35;;;3.90;;
46563;SDS011;32291;52.010;4.446;2023-07-13T04:48:35;10.57;;;3.55;;
46563;SDS011;32291;52.010;4.446;2023-07-13T04:49:43;11.80;;;4.00;;
46563;SDS011;32291;52.010;4.446;2023-07-13T04:50:46;7.78;;;3.17;;
46563;SDS011;32291;52.010;4.446;2023-07-13T04:51:54;11.10;;;3.28;;
46563;SDS011;32291;52.010;4.446;2023-07-13T04:53:01;9.13;;;2.78;;
46563;SDS011;32291;52.010;4.446;2023-07-13T04:54:09;9.25;;;3.17;;
46563;SDS011;32291;52.010;4.446;2023-07-13T04:55:16;11.48;;;3.83;;
46563;SDS011;32291;52.010;4.446;2023-07-13T04:56:25;9.25;;;4.05;;
46563;SDS011;32291;52.010;4.446;2023-07-13T04:57:32;10.75;;;3.47;;
46563;SDS011;32291;52.010;4.446;2023-07-13T04:58:39;8.60;;;2.92;;
46563;SDS011;32291;52.010;4.446;2023-07-13T04:59:42;9.93;;;3.00;;
46563;SDS011;32291;52.010;4.446;2023-07-13T05:00:44;10.50;;;3.13;;
46563;SDS011;32291;52.010;4.446;2023-07-13T05:01:51;6.00;;;2.90;;
46563;SDS011;32291;52.010;4.446;2023-07-13T05:02:59;10.10;;;3.40;;
46563;SDS011;32291;52.010;4.446;2023-07-13T05:04:09;9.00;;;2.97;;
46563;SDS011;32291;52.010;4.446;2023-07-13T05:05:16;7.00;;;2.90;;
46563;SDS011;32291;52.010;4.446;2023-07-13T05:06:19;6.10;;;2.85;;
46563;SDS011;32291;52.010;4.446;2023-07-13T05:07:22;8.73;;;3.50;;
46563;SDS011;32291;52.010;4.446;2023-07-13T05:08:29;8.70;;;3.05;;
46563;SDS011;32291;52.010;4.446;2023-07-13T05:09:32;7.85;;;2.78;;
46563;SDS011;32291;52.010;4.446;2023-07-13T05:10:34;7.80;;;2.70;;
46563;SDS011;32291;52.010;4.446;2023-07-13T05:11:37;6.70;;;3.47;;
46563;SDS011;32291;52.010;4.446;2023-07-13T05:12:39;7.30;;;2.55;;
46563;SDS011;32291;52.010;4.446;2023-07-13T05:13:42;9.60;;;2.88;;
46563;SDS011;32291;52.010;4.446;2023-07-13T05:14:47;7.55;;;2.70;;
46563;SDS011;32291;52.010;4.446;2023-07-13T05:15:57;8.40;;;2.85;;
46563;SDS011;32291;52.010;4.446;2023-07-13T05:17:04;6.50;;;2.13;;
46563;SDS011;32291;52.010;4.446;2023-07-13T05:18:09;5.50;;;2.53;;
46563;SDS011;32291;52.010;4.446;2023-07-13T05:19:11;5.45;;;2.55;;
46563;SDS011;32291;52.010;4.446;2023-07-13T05:20:19;5.53;;;2.30;;
46563;SDS011;32291;52.010;4.446;2023-07-13T05:21:24;9.40;;;2.95;;
46563;SDS011;32291;52.010;4.446;2023-07-13T05:22:34;6.60;;;2.50;;
46563;SDS011;32291;52.010;4.446;2023-07-13T05:23:42;6.63;;;2.42;;
46563;SDS011;32291;52.010;4.446;2023-07-13T05:24:44;5.35;;;2.38;;
46563;SDS011;32291;52.010;4.446;2023-07-13T05:25:51;6.72;;;2.60;;
46563;SDS011;32291;52.010;4.446;2023-07-13T05:26:54;7.53;;;2.70;;
46563;SDS011;32291;52.010;4.446;2023-07-13T05:28:01;6.97;;;2.25;;
46563;SDS011;32291;52.010;4.446;2023-07-13T05:29:03;6.57;;;3.15;;
46563;SDS011;32291;52.010;4.446;2023-07-13T05:30:10;8.52;;;2.55;;
46563;SDS011;32291;52.010;4.446;2023-07-13T05:31:21;8.40;;;2.72;;
46563;SDS011;32291;52.010;4.446;2023-07-13T05:32:23;7.78;;;2.75;;
46563;SDS011;32291;52.010;4.446;2023-07-13T05:33:26;8.57;;;2.63;;
46563;SDS011;32291;52.010;4.446;2023-07-13T05:34:33;5.40;;;2.67;;
46563;SDS011;32291;52.010;4.446;2023-07-13T05:37:40;9.80;;;2.97;;
46563;SDS011;32291;52.010;4.446;2023-07-13T05:38:42;5.80;;;2.50;;
46563;SDS011;32291;52.010;4.446;2023-07-13T05:39:44;7.00;;;2.63;;
46563;SDS011;32291;52.010;4.446;2023-07-13T05:40:47;6.22;;;2.30;;
46563;SDS011;32291;52.010;4.446;2023-07-13T05:41:49;4.22;;;2.28;;
46563;SDS011;32291;52.010;4.446;2023-07-13T05:42:56;5.88;;;2.78;;
46563;SDS011;32291;52.010;4.446;2023-07-13T05:43:58;12.13;;;3.13;;
46563;SDS011;32291;52.010;4.446;2023-07-13T05:45:01;7.68;;;2.50;;
46563;SDS011;32291;52.010;4.446;2023-07-13T05:46:04;4.95;;;2.10;;
46563;SDS011;32291;52.010;4.446;2023-07-13T05:47:11;7.65;;;2.72;;
46563;SDS011;32291;52.010;4.446;2023-07-13T05:48:15;4.72;;;2.10;;
46563;SDS011;32291;52.010;4.446;2023-07-13T05:49:18;8.00;;;2.45;;
46563;SDS011;32291;52.010;4.446;2023-07-13T05:50:25;6.30;;;2.92;;
46563;SDS011;32291;52.010;4.446;2023-07-13T05:51:29;5.63;;;2.13;;
46563;SDS011;32291;52.010;4.446;2023-07-13T05:52:36;8.65;;;2.78;;
46563;SDS011;32291;52.010;4.446;2023-07-13T05:53:39;6.60;;;2.53;;
46563;SDS011;32291;52.010;4.446;2023-07-13T05:54:46;7.60;;;2.45;;
46563;SDS011;32291;52.010;4.446;2023-07-13T05:55:51;5.45;;;2.03;;
46563;SDS011;32291;52.010;4.446;2023-07-13T05:57:04;5.43;;;2.53;;
46563;SDS011;32291;52.010;4.446;2023-07-13T05:58:07;7.13;;;2.78;;
46563;SDS011;32291;52.010;4.446;2023-07-13T05:59:12;6.07;;;2.33;;
46563;SDS011;32291;52.010;4.446;2023-07-13T06:00:19;7.72;;;2.60;;
46563;SDS011;32291;52.010;4.446;2023-07-13T06:01:21;6.40;;;2.42;;
46563;SDS011;32291;52.010;4.446;2023-07-13T06:02:29;5.80;;;2.28;;
46563;SDS011;32291;52.010;4.446;2023-07-13T06:03:36;5.40;;;2.40;;
46563;SDS011;32291;52.010;4.446;2023-07-13T06:04:46;6.20;;;2.72;;
46563;SDS011;32291;52.010;4.446;2023-07-13T06:05:53;6.25;;;2.42;;
46563;SDS011;32291;52.010;4.446;2023-07-13T06:07:00;4.05;;;2.33;;
46563;SDS011;32291;52.010;4.446;2023-07-13T06:08:08;6.68;;;2.13;;
46563;SDS011;32291;52.010;4.446;2023-07-13T06:09:15;7.57;;;2.80;;
46563;SDS011;32291;52.010;4.446;2023-07-13T06:10:17;6.00;;;2.17;;
46563;SDS011;32291;52.010;4.446;2023-07-13T06:11:25;7.30;;;3.05;;
46563;SDS011;32291;52.010;4.446;2023-07-13T06:12:35;5.40;;;2.20;;
46563;SDS011;32291;52.010;4.446;2023-07-13T06:13:38;5.88;;;2.63;;
46563;SDS011;32291;52.010;4.446;2023-07-13T06:14:41;6.38;;;2.50;;
46563;SDS011;32291;52.010;4.446;2023-07-13T06:15:43;7.07;;;2.90;;
46563;SDS011;32291;52.010;4.446;2023-07-13T06:16:51;8.50;;;2.92;;
46563;SDS011;32291;52.010;4.446;2023-07-13T06:17:54;9.00;;;2.90;;
46563;SDS011;32291;52.010;4.446;2023-07-13T06:19:01;6.03;;;2.70;;
46563;SDS011;32291;52.010;4.446;2023-07-13T06:20:04;8.60;;;2.22;;
46563;SDS011;32291;52.010;4.446;2023-07-13T06:21:08;6.50;;;3.50;;
46563;SDS011;32291;52.010;4.446;2023-07-13T06:22:21;8.30;;;2.67;;
46563;SDS011;32291;52.010;4.446;2023-07-13T06:23:23;6.32;;;2.45;;
46563;SDS011;32291;52.010;4.446;2023-07-13T06:24:32;9.65;;;2.65;;
46563;SDS011;32291;52.010;4.446;2023-07-13T06:25:34;7.93;;;3.38;;
46563;SDS011;32291;52.010;4.446;2023-07-13T06:26:36;9.18;;;2.95;;
46563;SDS011;32291;52.010;4.446;2023-07-13T06:27:42;7.25;;;3.28;;
46563;SDS011;32291;52.010;4.446;2023-07-13T06:28:49;5.32;;;2.55;;
46563;SDS011;32291;52.010;4.446;2023-07-13T06:29:51;6.55;;;2.50;;
46563;SDS011;32291;52.010;4.446;2023-07-13T06:31:01;7.53;;;2.40;;
46563;SDS011;32291;52.010;4.446;2023-07-13T06:32:07;5.75;;;2.58;;
46563;SDS011;32291;52.010;4.446;2023-07-13T06:33:12;6.93;;;2.35;;
46563;SDS011;32291;52.010;4.446;2023-07-13T06:34:15;6.95;;;2.60;;
46563;SDS011;32291;52.010;4.446;2023-07-13T06:35:17;6.40;;;2.90;;
46563;SDS011;32291;52.010;4.446;2023-07-13T06:36:25;6.95;;;2.90;;
46563;SDS011;32291;52.010;4.446;2023-07-13T06:37:29;5.60;;;2.55;;
46563;SDS011;32291;52.010;4.446;2023-07-13T06:38:37;10.63;;;2.90;;